Time;durP1;ratioP1;P1;durP2;ratioP2;P2;SDS_P1;SDS_P2;PMS_P1;PMS_P2;Temp;Humidity;BMP_temperature;BMP_pressure;BME280_temperature;BME280_humidity;BME280_pressure;Samples;Min_cycle;Max_cycle;Signal;HPM_P1;HPM_P2
2023/09/28 00:01:22;;;;;;;12.60;8.27;;;12.80;99.90;;;;;;5011905;28;21008;-72
2023/09/28 00:03:51;;;;;;;15.37;8.30;;;12.80;99.90;;;;;;5011347;28;20446;-72
2023/09/28 00:06:20;;;;;;;12.80;7.53;;;12.70;99.90;;;;;;5011053;28;20478;-72
2023/09/28 00:08:47;;;;;;;14.20;8.40;;;12.60;99.90;;;;;;5010856;28;20563;-73
2023/09/28 00:11:15;;;;;;;13.40;8.17;;;12.70;99.90;;;;;;5011370;28;20465;-71
2023/09/28 00:13:42;;;;;;;12.13;7.77;;;12.70;99.90;;;;;;5011769;28;20462;-73
2023/09/28 00:16:10;;;;;;;13.20;7.17;;;12.70;99.90;;;;;;5011491;28;20438;-73
2023/09/28 00:18:38;;;;;;;13.90;8.67;;;12.60;99.90;;;;;;5010900;28;20454;-73
2023/09/28 00:21:07;;;;;;;14.27;8.23;;;12.70;99.90;;;;;;5011734;28;20497;-71
2023/09/28 00:23:34;;;;;;;12.60;8.23;;;12.70;99.90;;;;;;5011572;28;20450;-72
2023/09/28 00:26:02;;;;;;;14.33;8.40;;;12.50;99.90;;;;;;5011062;28;21027;-74
2023/09/28 00:28:29;;;;;;;12.30;7.77;;;12.50;99.90;;;;;;5010657;28;20446;-74
2023/09/28 00:30:57;;;;;;;13.83;8.13;;;12.50;99.90;;;;;;5011359;28;20473;-72
2023/09/28 00:33:24;;;;;;;11.43;7.47;;;12.50;99.90;;;;;;5011029;28;20440;-72
2023/09/28 00:35:54;;;;;;;14.53;8.90;;;12.70;99.90;;;;;;5011248;28;20484;-73
2023/09/28 00:38:21;;;;;;;12.47;7.73;;;12.80;99.90;;;;;;5011172;28;20450;-71
2023/09/28 00:40:48;;;;;;;13.00;8.53;;;12.80;99.90;;;;;;5010791;28;20466;-73
2023/09/28 00:43:25;;;;;;;15.60;8.00;;;12.70;99.90;;;;;;5010803;28;21024;-74
2023/09/28 00:45:52;;;;;;;15.43;7.90;;;12.60;99.90;;;;;;5011234;28;21028;-74
2023/09/28 00:48:20;;;;;;;13.77;8.23;;;12.70;99.90;;;;;;5010888;28;20537;-72
2023/09/28 00:50:49;;;;;;;12.80;8.00;;;12.70;99.90;;;;;;5010641;28;20858;-72
2023/09/28 00:53:21;;;;;;;13.73;7.90;;;12.70;99.90;;;;;;5011030;28;20444;-72
2023/09/28 00:55:49;;;;;;;13.13;8.73;;;12.70;99.90;;;;;;5011282;28;20450;-73
2023/09/28 00:58:16;;;;;;;16.67;10.00;;;12.80;99.90;;;;;;5010469;28;20481;-71
2023/09/28 01:00:44;;;;;;;14.27;8.20;;;12.80;99.90;;;;;;5010268;28;20996;-71
2023/09/28 01:03:11;;;;;;;14.87;9.53;;;12.90;99.90;;;;;;5010864;28;20474;-71
2023/09/28 01:05:40;;;;;;;15.50;8.90;;;13.00;99.90;;;;;;5011137;28;20827;-72
2023/09/28 01:08:09;;;;;;;13.27;8.57;;;12.90;99.90;;;;;;5010502;28;20500;-71
2023/09/28 01:10:40;;;;;;;13.17;7.03;;;12.90;99.90;;;;;;5010782;28;20513;-72
2023/09/28 01:13:11;;;;;;;15.97;8.80;;;12.90;99.90;;;;;;5002473;28;20433;-73
2023/09/28 01:15:39;;;;;;;14.53;8.47;;;12.90;99.90;;;;;;5010407;28;20444;-72
2023/09/28 01:18:09;;;;;;;15.73;8.03;;;12.90;99.90;;;;;;5009921;28;20503;-73
2023/09/28 01:20:37;;;;;;;15.83;8.90;;;12.90;99.90;;;;;;5016756;28;20473;-72
2023/09/28 01:23:06;;;;;;;16.10;8.50;;;12.90;99.90;;;;;;5009743;28;20488;-72
2023/09/28 01:25:35;;;;;;;12.40;7.70;;;12.80;99.90;;;;;;5010239;28;20463;-71
2023/09/28 01:28:02;;;;;;;16.77;9.13;;;12.70;99.90;;;;;;5009477;28;20515;-73
2023/09/28 01:30:31;;;;;;;15.70;9.00;;;12.70;99.90;;;;;;5009866;28;20469;-71
2023/09/28 01:32:58;;;;;;;16.83;9.87;;;12.70;99.90;;;;;;5009524;28;20434;-72
2023/09/28 01:35:28;;;;;;;11.97;8.00;;;12.70;99.90;;;;;;5009516;28;20449;-74
2023/09/28 01:38:00;;;;;;;19.20;10.17;;;12.80;99.90;;;;;;5009013;28;20495;-72
2023/09/28 01:40:29;;;;;;;15.03;9.60;;;12.70;99.90;;;;;;5009257;28;20477;-70
2023/09/28 01:42:56;;;;;;;15.20;9.20;;;12.80;99.90;;;;;;5008946;28;20481;-70
2023/09/28 01:45:25;;;;;;;14.10;9.03;;;12.80;99.90;;;;;;5009339;28;20456;-71
2023/09/28 01:47:52;;;;;;;14.27;8.73;;;12.80;99.90;;;;;;5008677;28;20952;-70
2023/09/28 01:50:21;;;;;;;14.63;9.10;;;12.80;99.90;;;;;;5008866;28;20523;-70
2023/09/28 01:52:48;;;;;;;16.33;8.27;;;12.90;99.90;;;;;;5009053;28;20529;-71
2023/09/28 01:55:16;;;;;;;14.30;9.40;;;12.90;99.90;;;;;;5009175;28;20455;-70
2023/09/28 01:57:44;;;;;;;15.63;8.10;;;13.00;99.90;;;;;;5008870;28;20445;-70
2023/09/28 02:00:14;;;;;;;15.43;10.00;;;13.00;99.90;;;;;;5001128;28;20520;-71
2023/09/28 02:02:43;;;;;;;15.30;9.63;;;12.90;99.90;;;;;;5008151;28;20477;-70
2023/09/28 02:05:11;;;;;;;16.27;9.67;;;12.90;99.90;;;;;;5000916;28;20449;-71
2023/09/28 02:07:39;;;;;;;14.73;9.97;;;12.80;99.90;;;;;;5008831;28;20533;-71
2023/09/28 02:10:10;;;;;;;14.80;9.37;;;12.80;99.90;;;;;;5008633;28;20496;-71
2023/09/28 02:12:39;;;;;;;14.77;9.17;;;12.80;99.90;;;;;;5008934;28;20438;-71
2023/09/28 02:15:10;;;;;;;16.37;9.90;;;12.80;99.90;;;;;;5008708;28;20476;-70
2023/09/28 02:17:37;;;;;;;15.50;9.23;;;12.90;99.90;;;;;;5008481;28;20504;-70
2023/09/28 02:20:08;;;;;;;13.13;8.90;;;12.90;99.90;;;;;;5008445;28;20468;-70
2023/09/28 02:22:37;;;;;;;12.80;8.00;;;12.90;99.90;;;;;;5009033;28;20489;-71
2023/09/28 02:25:08;;;;;;;13.50;7.73;;;13.00;99.90;;;;;;5008539;28;20441;-70
2023/09/28 02:27:35;;;;;;;14.37;8.53;;;12.90;99.90;;;;;;5008337;28;20549;-72
2023/09/28 02:30:06;;;;;;;14.53;8.40;;;12.90;99.90;;;;;;5008214;28;20467;-70
2023/09/28 02:32:35;;;;;;;18.73;8.30;;;12.80;99.90;;;;;;5008597;28;20446;-70
2023/09/28 02:35:03;;;;;;;13.80;8.30;;;12.80;99.90;;;;;;5008645;28;20456;-71
2023/09/28 02:37:30;;;;;;;14.37;8.40;;;12.70;99.90;;;;;;5008461;28;20445;-70
2023/09/28 02:39:58;;;;;;;15.40;9.40;;;12.70;99.90;;;;;;5008933;28;20546;-71
2023/09/28 02:42:26;;;;;;;13.67;8.10;;;12.70;99.90;;;;;;5012675;28;20485;-70
2023/09/28 02:44:54;;;;;;;13.67;8.77;;;12.90;99.90;;;;;;5012335;28;20446;-70
2023/09/28 02:47:21;;;;;;;13.80;8.30;;;12.90;99.90;;;;;;5012342;28;20444;-71
2023/09/28 02:49:51;;;;;;;13.73;7.90;;;13.00;99.90;;;;;;5012185;28;20836;-71
2023/09/28 02:52:18;;;;;;;18.77;9.73;;;13.00;99.90;;;;;;5012383;28;20480;-71
2023/09/28 02:54:47;;;;;;;14.73;8.80;;;13.00;99.90;;;;;;5012264;28;20453;-72
2023/09/28 02:57:14;;;;;;;12.10;7.37;;;13.00;99.90;;;;;;5012058;28;20508;-72
2023/09/28 02:59:43;;;;;;;14.50;7.77;;;13.00;99.90;;;;;;5012235;28;20521;-70
2023/09/28 03:02:10;;;;;;;13.20;7.80;;;13.00;99.90;;;;;;5012215;28;20457;-70
2023/09/28 03:04:38;;;;;;;12.60;7.20;;;13.00;99.90;;;;;;5012330;28;20485;-70
2023/09/28 03:07:06;;;;;;;12.90;7.70;;;13.00;99.90;;;;;;5011957;28;20500;-71
2023/09/28 03:09:35;;;;;;;13.97;8.10;;;13.00;99.90;;;;;;5011976;28;20869;-70
2023/09/28 03:12:03;;;;;;;14.03;7.87;;;13.00;99.90;;;;;;5011754;28;20920;-71
2023/09/28 03:14:31;;;;;;;13.23;8.73;;;13.20;99.90;;;;;;5012187;28;20543;-70
2023/09/28 03:16:58;;;;;;;13.70;8.33;;;13.20;99.90;;;;;;5011798;28;20984;-70
2023/09/28 03:19:26;;;;;;;15.00;7.80;;;13.30;99.90;;;;;;5011751;28;20460;-70
2023/09/28 03:21:53;;;;;;;12.63;7.67;;;13.30;99.90;;;;;;5012023;28;20448;-71
2023/09/28 03:24:23;;;;;;;14.27;7.53;;;13.40;99.90;;;;;;5011906;28;20901;-71
2023/09/28 03:26:51;;;;;;;12.43;7.17;;;13.50;99.90;;;;;;5012245;28;21123;-70
2023/09/28 03:29:37;;;;;;;15.23;7.30;;;13.40;99.90;;;;;;5013011;28;20508;-70
2023/09/28 03:32:04;;;;;;;13.47;7.40;;;13.30;99.90;;;;;;5012819;28;20863;-70
2023/09/28 03:34:32;;;;;;;12.30;7.80;;;13.40;99.90;;;;;;5012530;28;20519;-72
2023/09/28 03:37:00;;;;;;;14.03;7.77;;;13.40;99.90;;;;;;5011251;28;20454;-70
2023/09/28 03:39:29;;;;;;;13.30;8.63;;;13.40;99.90;;;;;;5011998;28;20545;-72
2023/09/28 03:41:57;;;;;;;13.47;7.30;;;13.40;99.90;;;;;;5011925;28;20544;-71
2023/09/28 03:44:26;;;;;;;16.13;7.70;;;13.60;99.90;;;;;;5011751;28;20531;-70
2023/09/28 03:46:54;;;;;;;14.30;7.70;;;13.70;99.90;;;;;;5011098;28;20446;-71
2023/09/28 03:49:23;;;;;;;13.53;7.90;;;13.70;99.90;;;;;;5011070;28;20448;-69
2023/09/28 03:51:51;;;;;;;13.07;7.17;;;13.60;99.90;;;;;;5011176;28;20446;-70
2023/09/28 03:54:19;;;;;;;12.53;6.70;;;13.50;99.90;;;;;;5011315;28;20442;-70
2023/09/28 03:56:48;;;;;;;10.70;5.83;;;13.60;99.90;;;;;;5010900;28;20960;-70
2023/09/28 03:59:16;;;;;;;12.13;6.70;;;13.60;99.90;;;;;;5003389;28;20442;-70
2023/09/28 04:01:44;;;;;;;12.80;7.10;;;13.60;99.90;;;;;;5011021;28;20466;-70
2023/09/28 04:04:13;;;;;;;12.63;6.67;;;13.60;99.90;;;;;;5010731;28;20997;-71
2023/09/28 04:06:41;;;;;;;12.13;6.33;;;13.50;99.90;;;;;;5010895;28;20449;-72
2023/09/28 04:09:10;;;;;;;12.00;7.23;;;13.50;99.90;;;;;;5010690;28;20446;-71
2023/09/28 04:11:38;;;;;;;14.43;8.83;;;13.40;99.90;;;;;;5010813;28;20571;-70
2023/09/28 04:14:08;;;;;;;16.30;7.17;;;13.20;99.90;;;;;;5010434;28;20537;-71
2023/09/28 04:16:39;;;;;;;14.73;7.43;;;13.20;99.90;;;;;;5010655;28;20448;-70
2023/09/28 04:19:06;;;;;;;12.90;8.07;;;13.20;99.90;;;;;;5010779;28;20457;-70
2023/09/28 04:21:34;;;;;;;13.90;8.00;;;13.20;99.90;;;;;;5010911;28;20474;-70
2023/09/28 04:24:03;;;;;;;12.57;7.90;;;13.30;99.90;;;;;;5010329;28;20496;-70
2023/09/28 04:26:31;;;;;;;13.77;7.37;;;13.30;99.90;;;;;;5010298;28;20456;-70
2023/09/28 04:28:59;;;;;;;13.40;8.30;;;13.30;99.90;;;;;;5010129;28;20449;-71
2023/09/28 04:31:28;;;;;;;14.33;7.30;;;13.30;99.90;;;;;;5010713;28;20481;-69
2023/09/28 04:33:57;;;;;;;17.40;8.27;;;13.30;99.90;;;;;;5010444;28;20512;-72
2023/09/28 04:36:25;;;;;;;15.63;8.53;;;13.30;99.90;;;;;;5010592;28;20496;-69
2023/09/28 04:38:53;;;;;;;12.87;7.43;;;13.20;99.90;;;;;;5010264;28;20829;-71
2023/09/28 04:41:21;;;;;;;16.50;8.03;;;13.20;99.90;;;;;;5010182;28;20483;-70
2023/09/28 04:43:49;;;;;;;15.97;7.80;;;13.20;99.90;;;;;;5010659;28;20474;-71
2023/09/28 04:46:17;;;;;;;14.87;8.47;;;13.30;99.90;;;;;;5002951;28;20449;-69
2023/09/28 04:48:46;;;;;;;15.47;7.57;;;13.30;99.90;;;;;;5009965;28;20441;-70
2023/09/28 04:51:14;;;;;;;13.03;7.80;;;13.40;99.90;;;;;;5010105;28;21064;-71
2023/09/28 04:53:42;;;;;;;14.80;7.93;;;13.50;99.90;;;;;;5011023;28;20496;-70
2023/09/28 04:56:11;;;;;;;14.50;7.90;;;13.40;99.90;;;;;;5010014;28;20450;-72
2023/09/28 04:58:39;;;;;;;12.60;7.70;;;13.30;99.90;;;;;;5009879;28;20444;-71
2023/09/28 05:01:07;;;;;;;18.43;7.90;;;13.30;99.90;;;;;;5009714;28;21066;-72
2023/09/28 05:03:36;;;;;;;16.83;8.80;;;13.30;99.90;;;;;;5009289;28;21192;-71
2023/09/28 05:06:05;;;;;;;16.70;8.80;;;13.20;99.90;;;;;;5009808;28;20442;-72
2023/09/28 05:08:33;;;;;;;14.00;8.37;;;13.20;99.90;;;;;;5009339;28;20474;-71
2023/09/28 05:11:01;;;;;;;15.03;8.50;;;13.10;99.90;;;;;;5009338;28;20477;-69
2023/09/28 05:13:30;;;;;;;14.50;7.83;;;13.10;99.90;;;;;;5009790;28;21009;-68
2023/09/28 05:15:58;;;;;;;12.83;6.83;;;13.00;99.90;;;;;;5009488;28;20499;-73
2023/09/28 05:18:26;;;;;;;12.57;7.13;;;13.00;99.90;;;;;;5008949;28;20449;-71
2023/09/28 05:20:54;;;;;;;14.03;7.13;;;12.90;99.90;;;;;;5009450;28;20466;-71
2023/09/28 05:23:24;;;;;;;14.07;7.90;;;13.10;99.90;;;;;;5009388;28;20494;-72
2023/09/28 05:25:52;;;;;;;11.83;7.00;;;13.10;99.90;;;;;;5009171;28;20552;-71
2023/09/28 05:28:20;;;;;;;11.73;6.37;;;13.10;99.90;;;;;;5008944;28;20853;-68
2023/09/28 05:30:48;;;;;;;11.40;6.53;;;13.20;99.90;;;;;;5011411;28;20568;-69
2023/09/28 05:33:16;;;;;;;12.43;6.50;;;13.20;99.90;;;;;;5009355;28;20446;-70
2023/09/28 05:35:44;;;;;;;13.10;7.27;;;13.30;99.90;;;;;;5009466;28;20449;-72
2023/09/28 05:38:12;;;;;;;14.23;7.07;;;13.40;99.90;;;;;;5009024;28;20447;-71
2023/09/28 05:40:42;;;;;;;14.00;7.50;;;13.40;99.90;;;;;;5015364;28;20871;-70
2023/09/28 05:43:09;;;;;;;13.10;7.00;;;13.40;99.90;;;;;;5012402;28;20565;-70
2023/09/28 05:45:38;;;;;;;13.30;7.00;;;13.40;99.90;;;;;;5008860;28;20484;-70
2023/09/28 05:48:06;;;;;;;14.50;7.47;;;13.50;99.90;;;;;;5008761;28;20455;-71
2023/09/28 05:50:34;;;;;;;14.77;7.10;;;13.50;99.90;;;;;;5009228;28;20466;-69
2023/09/28 05:53:02;;;;;;;11.40;5.73;;;13.60;99.90;;;;;;5009275;28;20883;-70
2023/09/28 05:55:30;;;;;;;15.40;7.30;;;13.50;99.90;;;;;;5009181;28;20452;-69
2023/09/28 05:57:59;;;;;;;14.07;7.07;;;13.60;99.90;;;;;;5008848;28;20453;-71
2023/09/28 06:00:27;;;;;;;11.43;7.03;;;13.50;99.90;;;;;;5010030;28;20473;-72
2023/09/28 06:02:55;;;;;;;13.77;7.27;;;13.50;99.90;;;;;;5009583;28;20455;-72
2023/09/28 06:05:23;;;;;;;11.80;6.67;;;13.50;99.90;;;;;;5008514;28;20488;-72
2023/09/28 06:07:53;;;;;;;13.60;7.00;;;13.50;99.90;;;;;;5008371;28;20889;-71
2023/09/28 06:10:22;;;;;;;12.50;7.40;;;13.70;99.90;;;;;;5008427;28;20983;-71
2023/09/28 06:12:50;;;;;;;13.00;6.30;;;13.70;99.90;;;;;;5008895;28;20451;-71
2023/09/28 06:15:19;;;;;;;10.90;6.73;;;13.80;99.90;;;;;;5008503;28;20532;-72
2023/09/28 06:17:47;;;;;;;12.67;6.93;;;13.90;99.90;;;;;;5008406;28;20443;-73
2023/09/28 06:20:17;;;;;;;12.80;6.00;;;14.10;99.90;;;;;;5011186;28;21000;-73
2023/09/28 06:22:45;;;;;;;17.87;8.90;;;14.20;99.90;;;;;;5013291;28;20553;-72
2023/09/28 06:25:13;;;;;;;19.27;11.23;;;14.20;99.90;;;;;;5008881;28;20487;-72
2023/09/28 06:27:41;;;;;;;19.03;8.20;;;14.20;99.90;;;;;;5008858;28;20830;-73
2023/09/28 06:30:10;;;;;;;13.10;7.00;;;14.30;99.90;;;;;;5008934;28;20474;-72
2023/09/28 06:32:39;;;;;;;12.63;6.80;;;14.40;99.90;;;;;;5010240;28;20504;-72
2023/09/28 06:35:09;;;;;;;12.60;7.10;;;14.40;99.90;;;;;;5008859;28;20512;-71
2023/09/28 06:37:37;;;;;;;13.27;6.23;;;14.50;99.90;;;;;;5009097;28;20482;-71
2023/09/28 06:40:07;;;;;;;11.60;6.60;;;14.60;99.90;;;;;;5007540;28;20486;-70
2023/09/28 06:42:35;;;;;;;13.60;6.97;;;14.70;99.90;;;;;;5008976;28;20460;-72
2023/09/28 06:45:06;;;;;;;14.43;6.50;;;14.80;99.90;;;;;;5008612;28;20484;-73
2023/09/28 06:47:35;;;;;;;12.90;5.67;;;15.00;99.90;;;;;;5008542;28;20953;-73
2023/09/28 06:50:25;;;;;;;13.20;6.67;;;15.10;99.90;;;;;;5008179;28;20496;-72
2023/09/28 06:52:53;;;;;;;11.00;6.20;;;15.20;99.90;;;;;;5008728;28;20453;-73
2023/09/28 06:55:23;;;;;;;12.70;6.80;;;15.20;99.90;;;;;;5008552;28;20468;-72
2023/09/28 06:57:52;;;;;;;12.00;6.67;;;15.20;99.90;;;;;;5007972;28;20454;-71
2023/09/28 07:00:20;;;;;;;12.20;6.50;;;15.20;99.90;;;;;;5000034;28;20466;-72
2023/09/28 07:02:48;;;;;;;11.67;6.03;;;15.30;99.90;;;;;;5008411;28;20508;-71
2023/09/28 07:05:16;;;;;;;12.37;6.83;;;15.30;99.90;;;;;;5008131;28;20569;-69
2023/09/28 07:07:47;;;;;;;11.80;6.10;;;15.20;99.90;;;;;;5007902;28;20524;-70
2023/09/28 07:10:15;;;;;;;12.60;6.70;;;15.20;99.90;;;;;;5007994;28;20493;-70
2023/09/28 07:12:43;;;;;;;12.60;6.77;;;15.40;99.90;;;;;;5006534;28;20540;-71
2023/09/28 07:15:11;;;;;;;11.97;6.30;;;15.60;99.90;;;;;;5005194;28;20454;-69
2023/09/28 07:17:39;;;;;;;12.70;6.07;;;16.00;99.90;;;;;;5002734;28;20477;-70
2023/09/28 07:20:09;;;;;;;12.10;5.63;;;16.30;99.90;;;;;;5008074;28;20465;-70
2023/09/28 07:22:37;;;;;;;12.00;5.37;;;16.60;99.90;;;;;;5004899;28;20453;-70
2023/09/28 07:25:09;;;;;;;14.23;6.40;;;16.90;99.90;;;;;;5004240;28;20893;-70
2023/09/28 07:27:37;;;;;;;10.43;4.97;;;17.20;99.90;;;;;;5009241;28;20820;-71
2023/09/28 07:30:06;;;;;;;10.33;5.00;;;17.30;99.90;;;;;;5008820;28;20567;-69
2023/09/28 07:32:34;;;;;;;12.80;5.57;;;17.40;99.90;;;;;;5008218;28;20454;-70
2023/09/28 07:35:03;;;;;;;11.47;5.07;;;17.50;99.90;;;;;;5007429;28;20503;-71
2023/09/28 07:37:32;;;;;;;9.07;4.40;;;17.50;99.90;;;;;;5007247;28;20454;-70
2023/09/28 07:40:01;;;;;;;11.77;5.40;;;17.40;99.90;;;;;;5008563;28;20477;-70
2023/09/28 07:42:30;;;;;;;12.40;5.17;;;17.30;99.90;;;;;;5008134;28;20446;-69
2023/09/28 07:44:58;;;;;;;11.57;5.50;;;17.40;99.90;;;;;;5007256;28;20456;-71
2023/09/28 07:47:26;;;;;;;9.40;4.77;;;17.40;99.90;;;;;;5006765;28;21024;-70
2023/09/28 07:49:54;;;;;;;10.70;4.90;;;17.40;99.90;;;;;;5007758;28;20454;-69
2023/09/28 07:52:23;;;;;;;9.63;4.60;;;17.50;99.90;;;;;;5008158;28;20446;-70
2023/09/28 07:54:51;;;;;;;10.17;4.67;;;17.80;99.90;;;;;;5008778;28;20507;-70
2023/09/28 07:57:19;;;;;;;11.13;4.70;;;17.90;99.90;;;;;;5008388;28;21158;-69
2023/09/28 07:59:48;;;;;;;11.47;4.90;;;18.00;99.90;;;;;;5009303;28;20815;-69
2023/09/28 08:02:16;;;;;;;11.30;4.88;;;17.90;99.90;;;;;;5008149;28;20496;-69
2023/09/28 08:04:44;;;;;;;12.93;4.70;;;17.90;99.90;;;;;;5007871;28;20203;-70
2023/09/28 08:07:12;;;;;;;9.20;4.40;;;17.90;99.90;;;;;;5006801;28;20924;-71
2023/09/28 08:09:39;;;;;;;9.30;4.20;;;18.10;99.90;;;;;;5008282;28;20448;-71
2023/09/28 08:12:08;;;;;;;9.90;4.20;;;18.20;99.90;;;;;;5008288;28;20442;-71
2023/09/28 08:14:36;;;;;;;9.57;4.70;;;18.30;99.90;;;;;;5008226;28;20828;-70
2023/09/28 08:17:09;;;;;;;10.37;4.90;;;18.40;99.90;;;;;;5008306;28;20446;-69
2023/09/28 08:19:37;;;;;;;14.33;4.00;;;18.50;99.90;;;;;;5008222;28;21217;-71
2023/09/28 08:22:06;;;;;;;11.33;3.93;;;18.60;99.90;;;;;;5010971;28;20473;-69
2023/09/28 08:24:34;;;;;;;10.03;4.73;;;18.80;99.90;;;;;;5010006;28;20456;-70
2023/09/28 08:27:04;;;;;;;9.30;4.20;;;18.90;99.90;;;;;;5007102;28;20505;-70
2023/09/28 08:29:34;;;;;;;9.90;4.13;;;19.10;99.90;;;;;;5009076;28;20824;-72
2023/09/28 08:32:02;;;;;;;10.60;4.57;;;19.20;99.90;;;;;;5007411;28;20554;-71
2023/09/28 08:34:33;;;;;;;10.67;4.20;;;19.40;99.90;;;;;;5008205;28;20839;-70
2023/09/28 08:37:06;;;;;;;10.00;4.20;;;19.60;99.90;;;;;;5006673;28;20434;-72
2023/09/28 08:39:36;;;;;;;11.83;4.43;;;19.70;99.90;;;;;;5007427;28;20445;-71
2023/09/28 08:42:07;;;;;;;10.87;4.30;;;19.80;99.90;;;;;;5007618;28;20454;-66
2023/09/28 08:44:38;;;;;;;9.93;4.43;;;20.20;99.90;;;;;;5007462;28;20530;-67
2023/09/28 08:47:15;;;;;;;10.30;4.50;;;20.30;99.90;;;;;;5006413;28;20500;-66
2023/09/28 08:49:47;;;;;;;9.60;4.10;;;20.50;99.90;;;;;;5006588;28;20503;-65
2023/09/28 08:52:15;;;;;;;9.03;3.77;;;20.60;99.90;;;;;;5008172;28;21089;-66
2023/09/28 08:54:43;;;;;;;10.37;4.30;;;20.80;99.90;;;;;;5006850;28;20450;-67
2023/09/28 08:57:12;;;;;;;10.20;4.23;;;21.10;99.90;;;;;;5006459;28;20960;-67
2023/09/28 08:59:41;;;;;;;9.40;3.77;;;21.40;99.90;;;;;;5006897;28;21024;-67
2023/09/28 09:02:10;;;;;;;9.90;3.87;;;21.70;99.90;;;;;;5006484;28;20864;-67
2023/09/28 09:04:38;;;;;;;10.80;4.27;;;22.00;99.90;;;;;;5008310;28;20532;-67
2023/09/28 09:07:08;;;;;;;9.63;4.70;;;22.20;99.90;;;;;;5006956;28;20486;-67
2023/09/28 09:09:40;;;;;;;9.63;4.60;;;22.60;99.90;;;;;;5005086;28;20517;-72
2023/09/28 09:12:10;;;;;;;10.47;4.50;;;22.70;99.90;;;;;;5006524;28;20496;-69
2023/09/28 09:14:39;;;;;;;14.30;4.37;;;22.80;99.90;;;;;;5008127;28;21055;-69
2023/09/28 09:17:08;;;;;;;9.50;4.60;;;23.00;99.90;;;;;;5005792;28;20530;-68
2023/09/28 09:19:40;;;;;;;9.67;4.47;;;23.10;99.90;;;;;;5003581;28;20485;-69
2023/09/28 09:22:25;;;;;;;10.80;4.70;;;23.10;99.90;;;;;;5006823;28;20528;-67
2023/09/28 09:24:54;;;;;;;10.30;4.27;;;23.40;99.90;;;;;;5005944;28;20454;-68
2023/09/28 09:27:27;;;;;;;11.80;4.13;;;23.60;98.80;;;;;;5004409;28;20473;-67
2023/09/28 09:29:57;;;;;;;10.60;4.40;;;23.80;96.70;;;;;;5006296;28;20478;-68
2023/09/28 09:32:26;;;;;;;11.43;4.23;;;24.00;95.40;;;;;;5004603;28;20446;-69
2023/09/28 09:34:55;;;;;;;9.37;4.10;;;24.10;97.00;;;;;;5003752;28;20462;-65
2023/09/28 09:37:25;;;;;;;9.20;4.00;;;24.30;95.40;;;;;;5002342;28;20461;-68
2023/09/28 09:39:53;;;;;;;8.97;4.20;;;24.40;95.70;;;;;;5005493;28;20912;-68
2023/09/28 09:42:27;;;;;;;11.33;4.40;;;24.80;92.90;;;;;;5005693;28;21197;-68
2023/09/28 09:44:56;;;;;;;10.30;4.30;;;25.20;93.20;;;;;;5005924;28;21011;-67
2023/09/28 09:47:26;;;;;;;9.80;4.47;;;25.30;91.90;;;;;;5004521;28;21124;-68
2023/09/28 09:49:55;;;;;;;12.60;4.93;;;25.60;91.20;;;;;;5005172;28;20466;-68
2023/09/28 09:52:26;;;;;;;10.30;4.40;;;25.80;89.50;;;;;;5005363;28;20450;-68
2023/09/28 09:54:54;;;;;;;8.80;4.03;;;26.00;86.30;;;;;;5005303;28;20452;-69
2023/09/28 09:57:27;;;;;;;11.27;3.87;;;26.30;84.50;;;;;;5004620;28;20434;-68
2023/09/28 09:59:55;;;;;;;10.50;3.80;;;26.30;80.80;;;;;;5005593;28;20462;-68
2023/09/28 10:02:28;;;;;;;11.63;4.43;;;26.30;78.50;;;;;;5005515;28;20941;-67
2023/09/28 10:04:57;;;;;;;13.17;5.10;;;26.60;76.70;;;;;;5005308;28;20477;-68
2023/09/28 10:07:33;;;;;;;9.70;3.87;;;26.90;73.60;;;;;;5004419;28;20480;-68
2023/09/28 10:10:15;;;;;;;13.33;4.50;;;27.30;75.00;;;;;;5005081;28;20520;-68
2023/09/28 10:12:43;;;;;;;10.43;3.90;;;27.50;71.40;;;;;;5005323;28;21154;-67
2023/09/28 10:15:13;;;;;;;10.40;4.80;;;27.70;67.00;;;;;;5005984;28;20517;-67
2023/09/28 10:17:42;;;;;;;9.60;4.43;;;27.90;64.30;;;;;;5005217;28;20938;-68
2023/09/28 10:20:12;;;;;;;11.37;4.57;;;28.20;62.30;;;;;;5003669;28;20461;-67
2023/09/28 10:22:45;;;;;;;11.13;4.20;;;28.30;63.40;;;;;;5002698;28;20462;-67
2023/09/28 10:25:13;;;;;;;11.10;4.50;;;28.50;60.30;;;;;;5005395;28;20458;-67
2023/09/28 10:27:44;;;;;;;10.83;4.07;;;28.90;59.60;;;;;;5001190;28;20477;-67
2023/09/28 10:30:19;;;;;;;9.60;3.80;;;29.10;57.90;;;;;;4999425;28;20552;-66
2023/09/28 10:32:48;;;;;;;10.73;3.87;;;29.40;55.80;;;;;;5002879;28;20452;-67
2023/09/28 10:35:27;;;;;;;12.10;4.30;;;29.60;55.50;;;;;;5004078;28;20867;-68
2023/09/28 10:38:20;;;;;;;10.33;4.17;;;29.70;55.70;;;;;;5006137;28;20438;-68
2023/09/28 10:41:01;;;;;;;10.00;4.33;;;29.70;55.30;;;;;;5006308;28;20489;-68
2023/09/28 10:43:32;;;;;;;10.60;3.83;;;29.90;56.90;;;;;;5006920;28;20454;-68
2023/09/28 10:46:04;;;;;;;10.13;3.97;;;29.90;54.60;;;;;;5007311;28;20448;-67
2023/09/28 10:48:38;;;;;;;10.17;4.53;;;30.00;53.60;;;;;;5006766;28;20827;-68
2023/09/28 10:51:10;;;;;;;11.70;4.47;;;29.50;53.50;;;;;;5006550;28;20524;-67
2023/09/28 10:53:39;;;;;;;9.23;4.10;;;29.40;53.80;;;;;;5006388;28;20449;-67
2023/09/28 10:56:07;;;;;;;8.47;3.27;;;29.40;55.70;;;;;;5008924;28;21096;-68
2023/09/28 10:58:36;;;;;;;9.93;3.80;;;29.70;54.40;;;;;;5008310;28;21103;-69
2023/09/28 11:01:06;;;;;;;9.20;3.60;;;30.20;53.70;;;;;;5008499;28;20519;-68
2023/09/28 11:03:36;;;;;;;8.30;3.20;;;30.80;52.00;;;;;;5011845;28;20849;-67
2023/09/28 11:06:05;;;;;;;8.47;3.27;;;31.60;49.80;;;;;;5011638;28;20974;-67
2023/09/28 11:08:36;;;;;;;11.40;4.00;;;32.00;45.60;;;;;;5011713;28;20485;-67
2023/09/28 11:11:05;;;;;;;11.90;4.20;;;31.50;46.60;;;;;;5011667;28;21122;-68
2023/09/28 11:13:34;;;;;;;9.23;3.80;;;31.60;48.30;;;;;;5012175;28;20492;-69
2023/09/28 11:16:02;;;;;;;8.10;3.30;;;31.80;47.20;;;;;;5012883;28;20449;-68
2023/09/28 11:18:31;;;;;;;9.27;3.37;;;31.90;46.20;;;;;;5012972;28;20813;-67
2023/09/28 11:21:03;;;;;;;8.97;3.23;;;31.90;44.30;;;;;;5012419;28;20548;-68
2023/09/28 11:23:31;;;;;;;9.10;3.40;;;31.70;43.30;;;;;;5012083;28;20500;-69
2023/09/28 11:25:59;;;;;;;10.23;2.90;;;31.90;43.70;;;;;;5011660;28;20454;-67
2023/09/28 11:28:29;;;;;;;8.90;3.13;;;32.10;46.10;;;;;;5011937;28;21035;-67
2023/09/28 11:31:07;;;;;;;8.43;3.23;;;32.70;43.70;;;;;;5012727;28;20465;-68
2023/09/28 11:33:36;;;;;;;12.23;3.30;;;33.10;42.00;;;;;;5011965;28;20450;-67
2023/09/28 11:36:05;;;;;;;8.50;3.20;;;32.80;41.90;;;;;;5012232;28;20450;-67
2023/09/28 11:38:34;;;;;;;8.97;3.10;;;32.20;42.80;;;;;;5012480;28;20450;-68
2023/09/28 11:41:04;;;;;;;8.50;3.33;;;32.20;42.70;;;;;;5012625;28;20478;-67
2023/09/28 11:43:45;;;;;;;9.47;3.63;;;32.80;42.30;;;;;;5011736;28;20503;-67
2023/09/28 11:46:13;;;;;;;8.53;3.37;;;33.30;42.40;;;;;;5012768;28;20444;-67
2023/09/28 11:48:41;;;;;;;7.83;2.73;;;33.80;41.30;;;;;;5012525;28;20484;-67
2023/09/28 11:51:09;;;;;;;9.27;3.13;;;34.30;39.00;;;;;;5008842;28;20469;-67
2023/09/28 11:53:42;;;;;;;13.63;5.00;;;34.60;39.80;;;;;;5005773;28;20441;-67
2023/09/28 11:56:11;;;;;;;8.37;3.13;;;34.30;37.90;;;;;;5006851;28;20450;-66
2023/09/28 11:58:40;;;;;;;9.20;3.27;;;34.20;40.20;;;;;;5007654;28;20434;-66
2023/09/28 12:01:09;;;;;;;9.57;3.80;;;34.90;38.50;;;;;;5006924;28;20476;-67
2023/09/28 12:03:38;;;;;;;8.37;3.37;;;35.10;37.60;;;;;;5006959;28;20446;-67
2023/09/28 12:06:06;;;;;;;9.50;3.30;;;35.70;36.40;;;;;;5007173;28;20941;-66
2023/09/28 12:08:36;;;;;;;7.83;2.90;;;36.00;35.50;;;;;;5007455;28;20936;-66
2023/09/28 12:11:05;;;;;;;8.73;3.10;;;35.60;35.90;;;;;;5007261;28;20599;-67
2023/09/28 12:13:33;;;;;;;9.47;3.10;;;35.10;35.90;;;;;;5005593;28;20462;-66
2023/09/28 12:16:02;;;;;;;11.83;4.70;;;34.40;38.00;;;;;;5007533;28;20450;-67
2023/09/28 12:18:31;;;;;;;9.63;2.93;;;34.20;37.50;;;;;;5007403;28;21102;-65
2023/09/28 12:20:59;;;;;;;7.97;3.20;;;34.70;38.20;;;;;;5007308;28;20808;-67
2023/09/28 12:23:27;;;;;;;9.20;2.57;;;35.60;36.40;;;;;;5007398;28;20465;-66
2023/09/28 12:25:56;;;;;;;8.53;2.53;;;36.80;37.40;;;;;;5007286;28;20462;-67
2023/09/28 12:28:24;;;;;;;8.17;2.40;;;37.60;36.00;;;;;;5007659;28;20830;-67
2023/09/28 12:30:52;;;;;;;8.90;2.80;;;38.40;32.30;;;;;;5007722;28;21018;-67
2023/09/28 12:33:22;;;;;;;8.80;3.00;;;38.80;33.50;;;;;;5007066;28;20446;-67
2023/09/28 12:35:50;;;;;;;8.07;2.80;;;39.40;31.90;;;;;;5009201;28;20480;-67
2023/09/28 12:38:18;;;;;;;9.30;2.93;;;38.80;31.70;;;;;;5011517;28;20544;-68
2023/09/28 12:40:46;;;;;;;7.00;2.33;;;38.40;33.60;;;;;;5008625;28;21074;-67
2023/09/28 12:43:14;;;;;;;8.27;3.07;;;38.00;32.20;;;;;;5009933;28;20465;-68
2023/09/28 12:45:43;;;;;;;8.03;3.27;;;37.00;32.60;;;;;;5011007;28;20477;-69
2023/09/28 12:48:17;;;;;;;8.27;3.33;;;36.70;32.20;;;;;;5011042;28;21026;-68